Flight Track Log - Related Links

Times and Time Zones

All times are in EDT time to prevent confusion due to time zone crossing. See the DAL1117 flight status page for this flight to view local times or setup timezone preferences in your user account.


Time Position Orientation Groundspeed Altitude Reporting Facility
EDT Latitude Longitude Course Direction KTS MPH feet Rate Location/Type
Wed 11:50:28 PM 42.2314 -83.3342 North 136 157 1,600  Level Cleveland Center
Wed 11:51:29 PM 42.2814 -83.3308 North 227 261 2,400 1,670 Climbing Cleveland Center
Wed 11:52:23 PM 42.3442 -83.3278 North 274 315 4,800 3,026 Climbing Cleveland Center
Wed 11:53:24 PM 42.3711 -83.4133 293° West 261 300 8,200 2,585 Climbing Cleveland Center
Wed 11:54:33 PM 42.3750 -83.5147 273° West 278 320 10,400 1,953 Climbing Cleveland Center
Wed 11:55:33 PM 42.3842 -83.6333 276° West 296 341 12,400 2,650 Climbing Cleveland Center
Wed 11:56:33 PM 42.3939 -83.7433 277° West 308 354 15,700 2,850 Climbing Cleveland Center
Wed 11:57:33 PM 42.4031 -83.8619 276° West 313 360 18,100 2,200 Climbing Cleveland Center
Wed 11:58:33 PM 42.4100 -83.9778 275° West 313 360 20,100 1,850 Climbing Cleveland Center
Wed 11:59:33 PM 42.4189 -84.0992 276° West 313 360 21,800 1,600 Climbing Cleveland Center
Thu 12:00:33 AM 42.4275 -84.2292 275° West 331 381 23,300 1,493 Climbing Cleveland Center
Thu 12:02:58 AM 42.4361 -84.5533 272° West 362 417 26,900 1,398 Climbing Chicago Center
Thu 12:03:59 AM 42.4411 -84.6911 273° West 366 421 28,100 1,033 Climbing Chicago Center
Thu 12:05:00 AM 42.4436 -84.8325 271° West 375 432 29,000 590 Climbing Chicago Center
Thu 12:06:01 AM 42.4467 -84.9811 272° West 391 450 29,300 492 Climbing Chicago Center
Thu 12:07:02 AM 42.4514 -85.1378 272° West 412 474 30,000 1,279 Climbing Chicago Center
Thu 12:08:03 AM 42.4822 -85.2881 286° West 418 481 31,900 1,328 Climbing Chicago Center
Thu 12:09:04 AM 42.5158 -85.4367 287° West 412 474 32,700 541 Climbing Chicago Center
Thu 12:10:05 AM 42.5494 -85.5842 287° West 410 472 33,000 148 Climbing Chicago Center
Thu 12:11:06 AM 42.5817 -85.7331 286° West 410 472 33,000  Level Chicago Center
Thu 12:12:07 AM 42.6217 -85.9131 287° West 412 474 33,000 344 Level Chicago Center
Thu 12:13:08 AM 42.6553 -86.0658 287° West 419 482 33,700 787 Climbing Chicago Center
Thu 12:14:09 AM 42.6881 -86.2189 286° West 418 481 34,600 885 Climbing Chicago Center
Thu 12:15:10 AM 42.7206 -86.3661 287° West 406 467 35,500 689 Climbing Chicago Center
Thu 12:16:11 AM 42.7525 -86.5136 286° West 403 464 36,000 246 Climbing Chicago Center
Thu 12:17:12 AM 42.7833 -86.6608 286° West 402 463 36,000  Level Chicago Center
Thu 12:18:13 AM 42.8150 -86.8064 287° West 400 460 36,000  Level Chicago Center
Thu 12:19:14 AM 42.8447 -86.9542 285° West 401 461 36,000  Level Chicago Center
Thu 12:20:15 AM 42.8767 -87.1011 287° West 405 466 36,000  Level Chicago Center
Thu 12:21:16 AM 42.8886 -87.2492 276° West 392 451 36,000  Level Chicago Center
Thu 12:22:17 AM 42.8800 -87.3906 265° West 395 455 36,000  Level Chicago Center
Thu 12:23:18 AM 42.8628 -87.5550 262° West 379 436 36,000  Level Chicago Center
Thu 12:24:18 AM 42.8503 -87.6978 263° West 380 437 36,000  Level Chicago Center
Thu 12:25:19 AM 42.8369 -87.8447 263° West 384 442 36,000  Level Chicago Center
Thu 12:26:20 AM 42.8231 -87.9892 263° West 383 441 36,000  Level Chicago Center
Thu 12:27:21 AM 42.8097 -88.1358 263° West 386 444 36,000  Level Chicago Center
Thu 12:28:22 AM 42.7958 -88.2828 263° West 388 447 36,000  Level Chicago Center
Thu 12:29:23 AM 42.7811 -88.4311 262° West 392 451 36,000  Level Chicago Center
Thu 12:30:24 AM 42.7667 -88.5814 263° West 394 453 36,000  Level Chicago Center
Thu 12:31:25 AM 42.7514 -88.7322 262° West 398 458 36,000  Level Chicago Center
Thu 12:32:26 AM 42.7361 -88.8817 262° West 398 458 36,000  Level Chicago Center
Thu 12:33:26 AM 42.7214 -89.0317 262° West 398 458 36,000  Level Chicago Center
Thu 12:34:27 AM 42.7053 -89.1808 262° West 398 458 36,000  Level Chicago Center
Thu 12:35:28 AM 42.6889 -89.3311 262° West 399 459 36,000  Level Chicago Center
Thu 12:36:29 AM 42.6733 -89.4814 262° West 401 461 36,000  Level Chicago Center
Thu 12:37:30 AM 42.6572 -89.6333 262° West 404 465 36,000  Level Chicago Center
Thu 12:38:30 AM 42.6394 -89.7825 261° West 402 463 36,000  Level Chicago Center
Thu 12:39:31 AM 42.6236 -89.9411 262° West 405 466 36,000  Level Chicago Center
Thu 12:40:32 AM 42.6083 -90.0914 262° West 404 465 36,000  Level Chicago Center
Thu 12:41:33 AM 42.5914 -90.2397 261° West 402 463 36,000  Level Chicago Center
Thu 12:42:33 AM 42.5739 -90.3886 261° West 401 461 36,000  Level Chicago Center
Thu 12:43:34 AM 42.5558 -90.5378 261° West 404 465 36,000  Level Chicago Center
Thu 12:44:35 AM 42.5389 -90.6894 261° West 406 467 36,000  Level Chicago Center
Thu 12:45:36 AM 42.5208 -90.8397 261° West 407 468 36,000  Level Chicago Center
Thu 12:46:36 AM 42.5028 -90.9900 261° West 406 467 36,000  Level Chicago Center
Thu 12:47:37 AM 42.4828 -91.1403 260° West 407 468 36,000  Level Chicago Center
Thu 12:48:38 AM 42.4611 -91.3222 261° West 408 470 36,000  Level Chicago Center
Thu 12:49:38 AM 42.4408 -91.4758 260° West 412 474 36,000  Level Chicago Center
Thu 12:50:39 AM 42.4214 -91.6283 260° West 411 473 36,000  Level Chicago Center
Thu 12:51:40 AM 42.4022 -91.7803 260° West 410 472 36,000  Level Chicago Center
Thu 12:52:40 AM 42.3819 -91.9331 260° West 410 472 36,000  Level Chicago Center
Thu 12:53:41 AM 42.3625 -92.0856 260° West 412 474 36,000  Level Chicago Center
Thu 12:54:26 AM 42.3503 -92.1800 260° West 415 478 36,000  Level Minneapolis Center
Thu 12:55:26 AM 42.3303 -92.3336 260° West 417 480 36,000  Level Minneapolis Center
Thu 12:56:27 AM 42.3053 -92.5197 260° West 419 482 36,000  Level Minneapolis Center
Thu 12:57:27 AM 42.2844 -92.6736 260° West 420 483 36,000  Level Minneapolis Center
Thu 12:58:28 AM 42.2622 -92.8278 259° West 420 483 36,000  Level Minneapolis Center
Thu 12:59:28 AM 42.2408 -92.9853 260° West 426 490 36,000  Level Minneapolis Center
Thu 01:00:29 AM 42.2186 -93.1431 259° West 429 494 36,000  Level Minneapolis Center
Thu 01:01:33 AM 42.1961 -93.3017 259° West 432 497 36,000  Level Minneapolis Center
Thu 01:02:33 AM 42.1739 -93.4608 259° West 434 499 36,000  Level Minneapolis Center
Thu 01:03:34 AM 42.1503 -93.6194 259° West 433 498 36,000  Level Minneapolis Center
Thu 01:05:00 AM 42.1177 -93.8374 259° West  Level FlightAware Approximate
Thu 01:12:00 AM 41.9529 -94.8989 259° West  Level FlightAware Approximate
Thu 01:13:00 AM 41.9285 -95.0500 258° West  Level FlightAware Approximate
Thu 01:14:00 AM 41.9040 -95.2011 258° West  Level FlightAware Approximate
Thu 01:15:00 AM 41.8792 -95.3520 258° West  Level FlightAware Approximate
Thu 01:16:00 AM 41.8543 -95.5029 258° West  Level FlightAware Approximate
Thu 01:17:00 AM 41.8292 -95.6536 257° West  Level FlightAware Approximate
Thu 01:18:00 AM 41.8038 -95.8042 257° West  Level FlightAware Approximate
Thu 01:19:00 AM 41.7783 -95.9546 257° West  Level FlightAware Approximate
Thu 01:20:00 AM 41.7526 -96.1050 257° West  Level FlightAware Approximate
Thu 01:21:00 AM 41.7267 -96.2554 257° West  Level FlightAware Approximate
Thu 01:22:00 AM 41.7009 -96.4056 257° West  Level FlightAware Approximate
Thu 01:23:00 AM 41.6748 -96.5556 257° West  Level FlightAware Approximate
Thu 01:24:00 AM 41.6486 -96.7056 257° West  Level FlightAware Approximate
Thu 01:25:00 AM 41.6222 -96.8554 257° West  Level FlightAware Approximate
Thu 01:25:42 AM 41.5761 -97.1503 256° West 451 519 36,000  Level Minneapolis Center
Thu 01:26:00 AM 41.5955 -97.0051 257° West  Level FlightAware Approximate
Thu 01:26:42 AM 41.5486 -97.3106 257° West 446 513 36,000  Level Minneapolis Center
Thu 01:27:00 AM 41.5687 -97.1547 257° West  Level FlightAware Approximate
Thu 01:27:42 AM 41.5183 -97.4711 256° West 447 514 36,000  Level Minneapolis Center
Thu 01:28:00 AM 41.5417 -97.3041 256° West  Level FlightAware Approximate
Thu 01:28:43 AM 41.4903 -97.6317 257° West 446 513 36,000  Level Minneapolis Center
Thu 01:29:00 AM 41.5145 -97.4535 256° West  Level FlightAware Approximate
Thu 01:29:43 AM 41.4603 -97.7906 256° West 443 510 36,000  Level Minneapolis Center
Thu 01:30:00 AM 41.4871 -97.6027 256° West  Level FlightAware Approximate
Thu 01:30:43 AM 41.4306 -97.9494 256° West 443 510 36,000  Level Minneapolis Center
Thu 01:31:44 AM 41.3967 -98.1306 256° West 444 511 36,000  Level Minneapolis Center
Thu 01:32:44 AM 41.3664 -98.2903 256° West 445 512 36,000  Level Minneapolis Center
Thu 01:33:44 AM 41.3364 -98.4503 256° West 445 512 36,000  Level Minneapolis Center
Thu 01:34:45 AM 41.3097 -98.5903 256° West 449 517 36,000  Level Minneapolis Center
Thu 01:35:45 AM 41.2781 -98.7500 255° West 449 517 36,000  Level Minneapolis Center
Thu 01:36:46 AM 41.2408 -98.9417 256° West 447 514 36,000  Level Minneapolis Center
Thu 01:37:36 AM 41.2181 -99.0581 255° West 445 512 36,000  Level Denver Center
Thu 01:38:37 AM 41.1883 -99.2069 255° West 446 513 36,000  Level Denver Center
Thu 01:39:37 AM 41.1569 -99.3664 255° West 446 513 36,000  Level Denver Center
Thu 01:40:38 AM 41.1217 -99.5406 255° West 447 514 36,000  Level Denver Center
Thu 01:41:38 AM 41.0858 -99.7161 255° West 447 514 36,000  Level Denver Center
Thu 01:42:39 AM 41.0542 -99.8697 255° West 448 516 36,000  Level Denver Center
Thu 01:43:39 AM 41.0222 -100.0225 255° West 450 518 36,000  Level Denver Center
Thu 01:44:40 AM 40.9908 -100.1769 255° West 453 521 36,000  Level Denver Center
Thu 01:45:40 AM 40.9528 -100.3564 254° West 454 522 36,000  Level Denver Center
Thu 01:46:41 AM 40.9211 -100.5069 254° West 449 517 36,000  Level Denver Center
Thu 01:47:41 AM 40.8894 -100.6578 255° West 449 517 36,000  Level Denver Center
Thu 01:48:42 AM 40.8522 -100.8233 253° West 445 512 36,000  Level Denver Center
Thu 01:49:42 AM 40.8200 -100.9761 254° West 455 524 36,000  Level Denver Center
Thu 01:50:43 AM 40.7814 -101.1542 254° West 453 521 36,000  Level Denver Center
Thu 01:51:43 AM 40.7481 -101.3069 254° West 453 521 36,000  Level Denver Center
Thu 01:52:44 AM 40.7144 -101.4611 254° West 457 526 36,000  Level Denver Center
Thu 01:53:44 AM 40.6747 -101.6392 254° West 455 524 36,000  Level Denver Center
Thu 01:54:45 AM 40.6417 -101.7911 254° West 452 520 36,000  Level Denver Center
Thu 01:55:45 AM 40.6078 -101.9417 254° West 450 518 36,000  Level Denver Center
Thu 01:56:46 AM 40.5653 -102.1167 252° West 451 519 36,000  Level Denver Center
Thu 01:57:46 AM 40.5317 -102.2681 254° West 451 519 36,000 50 Level Denver Center
Thu 01:58:47 AM 40.4956 -102.4206 253° West 456 525 36,100  Climbing Denver Center
Thu 01:59:47 AM 40.4553 -102.5939 253° West 446 513 36,000 -50 Descending Denver Center
Thu 02:00:48 AM 40.4242 -102.7294 253° West 451 519 36,000  Level Denver Center
Thu 02:01:48 AM 40.3861 -102.8889 253° West 453 521 36,000  Level Denver Center
Thu 02:02:49 AM 40.3478 -103.0492 253° West 457 526 36,000  Level Denver Center
Thu 02:03:49 AM 40.3111 -103.2078 253° West 455 524 36,000 99 Level Denver Center
Thu 02:04:50 AM 40.2714 -103.3683 252° West 459 528 36,200 397 Climbing Denver Center
Thu 02:05:50 AM 40.2325 -103.5289 252° West 461 531 36,800 595 Climbing Denver Center
Thu 02:06:51 AM 40.1939 -103.6914 253° West 464 534 37,400 595 Climbing Denver Center
Thu 02:07:51 AM 40.1542 -103.8575 253° West 469 540 38,000 298 Climbing Denver Center
Thu 02:08:52 AM 40.1139 -104.0164 252° West 458 527 38,000  Level Denver Center
Thu 02:09:52 AM 40.0744 -104.1775 252° West 459 528 38,000  Level Denver Center
Thu 02:10:53 AM 40.0336 -104.3361 251° West 461 531 38,000 50 Level Denver Center
Thu 02:11:53 AM 39.9947 -104.4936 252° West 453 521 38,100  Climbing Denver Center
Thu 02:12:54 AM 39.9564 -104.6467 252° West 444 511 38,000 -50 Descending Denver Center
Thu 02:13:54 AM 39.9164 -104.7969 251° West 433 498 38,000  Level Denver Center
Thu 02:14:55 AM 39.8761 -104.9531 251° West 445 512 38,000  Level Denver Center
Thu 02:15:55 AM 39.8292 -105.1358 252° West 460 529 38,000  Level Denver Center
Thu 02:16:56 AM 39.7883 -105.2919 251° West 453 521 38,000  Level Denver Center
Thu 02:17:56 AM 39.7467 -105.4489 251° West 459 528 38,000  Level Denver Center
Thu 02:18:57 AM 39.7061 -105.6028 251° West 447 514 38,000  Level Denver Center
Thu 02:19:57 AM 39.6644 -105.7575 251° West 447 514 38,000  Level Denver Center
Thu 02:20:58 AM 39.6244 -105.9106 251° West 440 506 38,000  Level Denver Center
Thu 02:21:58 AM 39.5833 -106.0661 251° West 450 518 38,000  Level Denver Center
Thu 02:22:59 AM 39.5431 -106.2158 251° West 453 521 38,000  Level Denver Center
Thu 02:23:59 AM 39.5008 -106.3692 250° West 451 519 38,000  Level Denver Center
Thu 02:25:00 AM 39.4586 -106.5233 251° West 447 514 38,000  Level Denver Center
Thu 02:26:00 AM 39.4192 -106.6667 250° West 442 509 38,000  Level Denver Center
Thu 02:27:01 AM 39.3792 -106.8106 250° West 443 510 38,000  Level Denver Center
Thu 02:28:01 AM 39.3328 -106.9753 250° West 434 499 38,000  Level Denver Center
Thu 02:29:02 AM 39.2942 -107.1167 251° West 435 501 38,000  Level Denver Center
Thu 02:30:02 AM 39.2531 -107.2594 250° West 441 507 38,000  Level Denver Center
Thu 02:31:03 AM 39.2142 -107.4003 250° West 437 503 38,000  Level Denver Center
Thu 02:32:03 AM 39.1669 -107.5642 250° West 436 502 38,000  Level Denver Center
Thu 02:33:04 AM 39.1258 -107.7042 249° West 436 502 38,000  Level Denver Center
Thu 02:34:04 AM 39.0856 -107.8444 250° West 435 501 38,000  Level Denver Center
Thu 02:35:04 AM 39.0389 -108.0069 250° West 434 499 38,000  Level Denver Center
Thu 02:36:05 AM 38.9992 -108.1458 250° West 431 496 38,000  Level Denver Center
Thu 02:37:05 AM 38.9581 -108.2864 249° West 437 503 38,000  Level Denver Center
Thu 02:38:06 AM 38.9164 -108.4253 249° West 435 501 38,000  Level Denver Center
Thu 02:39:06 AM 38.8700 -108.5869 250° West 431 496 38,000  Level Denver Center
Thu 02:40:07 AM 38.8283 -108.7228 249° West 426 490 38,000  Level Denver Center
Thu 02:41:07 AM 38.7886 -108.8581 249° West 419 482 38,000  Level Denver Center
Thu 02:42:08 AM 38.7425 -109.0125 249° West 415 478 38,000  Level Denver Center
Thu 02:43:09 AM 38.7028 -109.1436 249° West 412 474 38,000  Level Denver Center
Thu 02:44:09 AM 38.6642 -109.2758 250° West 414 476 38,000  Level Denver Center
Thu 02:45:10 AM 38.6161 -109.4297 248° West 415 478 38,000  Level Denver Center
Thu 02:46:10 AM 38.5744 -109.5614 248° West 418 481 38,000  Level Denver Center
Thu 02:47:11 AM 38.5344 -109.6928 249° West 415 478 38,000  Level Denver Center
Thu 02:48:11 AM 38.4936 -109.8250 249° West 416 479 38,000  Level Denver Center
Thu 02:49:12 AM 38.4461 -109.9761 248° West 408 470 38,000  Level Denver Center
Thu 02:50:12 AM 38.3983 -110.1039 245° Southwest 417 480 38,000  Level Denver Center
Thu 02:51:13 AM 38.3442 -110.2275 241° Southwest 417 480 38,000  Level Denver Center
Thu 02:52:13 AM 38.2822 -110.3728 242° Southwest 418 481 38,000  Level Denver Center
Thu 02:53:14 AM 38.2283 -110.4953 241° Southwest 416 479 38,000  Level Denver Center
Thu 02:54:14 AM 38.1747 -110.6183 241° Southwest 415 478 38,000  Level Denver Center
Thu 02:55:04 AM 38.1311 -110.7211 242° Southwest 415 478 38,000  Level Salt Lake Center
Thu 02:56:04 AM 38.0678 -110.8644 241° Southwest 416 479 38,000  Level Salt Lake Center
Thu 02:57:05 AM 38.0119 -110.9881 240° Southwest 414 476 38,000  Level Salt Lake Center
Thu 02:58:05 AM 37.9547 -111.1147 240° Southwest 414 476 38,000  Level Salt Lake Center
Thu 02:59:06 AM 37.9000 -111.2408 241° Southwest 410 472 38,000  Level Salt Lake Center
Thu 03:00:06 AM 37.8442 -111.3661 241° Southwest 410 472 38,000  Level Salt Lake Center
Thu 03:01:08 AM 37.7894 -111.4922 241° Southwest 410 472 38,000  Level Salt Lake Center
Thu 03:02:07 AM 37.7314 -111.6178 240° Southwest 415 478 38,000  Level Salt Lake Center
Thu 03:03:09 AM 37.6739 -111.7436 240° Southwest 414 476 38,000  Level Salt Lake Center
Thu 03:04:08 AM 37.6175 -111.8669 240° Southwest 406 467 38,000  Level Salt Lake Center
Thu 03:05:08 AM 37.5622 -111.9903 241° Southwest 404 465 38,000  Level Salt Lake Center
Thu 03:06:09 AM 37.5061 -112.1133 240° Southwest 403 464 38,000 -50 Level Salt Lake Center
Thu 03:07:09 AM 37.4492 -112.2367 240° Southwest 406 467 37,900 -500 Descending Salt Lake Center
Thu 03:08:09 AM 37.3919 -112.3611 240° Southwest 409 471 37,000 -950 Descending Salt Lake Center
Thu 03:09:09 AM 37.3333 -112.4842 239° Southwest 408 470 36,000 -1,000 Descending Los Angeles Center
Thu 03:10:09 AM 37.2747 -112.6136 240° Southwest 420 483 35,000 -984 Descending Los Angeles Center
Thu 03:11:11 AM 37.2139 -112.7433 240° Southwest 425 489 34,000 -984 Descending Salt Lake Center
Thu 03:12:11 AM 37.1531 -112.8728 240° Southwest 427 491 33,000 -1,000 Descending Salt Lake Center
Thu 03:13:11 AM 37.0917 -113.0042 240° Southwest 432 497 32,000 -992 Descending Salt Lake Center
Thu 03:14:12 AM 37.0297 -113.1356 239° Southwest 436 502 31,000 -942 Descending Salt Lake Center
Thu 03:15:12 AM 36.9656 -113.2697 239° Southwest 443 510 30,100 -942 Descending Salt Lake Center
Thu 03:16:13 AM 36.9017 -113.4031 239° Southwest 446 513 29,100 -992 Descending Salt Lake Center
Thu 03:17:13 AM 36.8392 -113.5367 240° Southwest 446 513 28,100 -958 Descending Salt Lake Center
Thu 03:18:12 AM 36.7761 -113.6667 239° Southwest 442 509 27,200 -1,050 Descending Los Angeles Center
Thu 03:19:13 AM 36.7147 -113.7950 239° Southwest 434 499 26,000 -1,934 Descending Los Angeles Center
Thu 03:20:13 AM 36.6542 -113.9194 239° Southwest 424 488 23,300 -2,650 Descending Los Angeles Center
Thu 03:21:13 AM 36.5969 -114.0383 239° Southwest 405 466 20,700 -2,628 Descending Los Angeles Center
Thu 03:22:14 AM 36.5433 -114.1550 240° Southwest 392 451 18,000 -3,000 Descending Los Angeles Center
Thu 03:22:29 AM 36.5269 -114.2042 247° West 406 467 16,900 -3,000 Descending Los Angeles Center
Thu 03:23:12 AM 36.4903 -114.2811 239° Southwest 382 440 15,100 -2,680 Descending Los Angeles Center
Thu 03:24:12 AM 36.4269 -114.3858 233° Southwest 378 435 12,300 -2,244 Descending Los Angeles Center
Thu 03:25:15 AM 36.3592 -114.4886 231° Southwest 366 421 10,500 -1,415 Descending Los Angeles Center
Thu 03:26:15 AM 36.3067 -114.5739 233° Southwest 316 364 9,400 -1,240 Descending Los Angeles Center
Thu 03:27:16 AM 36.2567 -114.6539 232° Southwest 296 341 8,000 -694 Descending Los Angeles Center
Thu 03:28:16 AM 36.2097 -114.7275 232° Southwest 275 316 8,000  Level Los Angeles Center
Thu 03:29:16 AM 36.1697 -114.7931 233° Southwest 245 282 8,000 -150 Level Los Angeles Center
Thu 03:30:16 AM 36.1361 -114.8500 234° Southwest 204 235 7,700 -1,091 Descending Los Angeles Center
Thu 03:31:17 AM 36.1022 -114.9014 231° Southwest 190 219 5,800 -1,587 Descending Los Angeles Center
Thu 03:32:17 AM 36.0761 -114.9500 236° Southwest 174 200 4,500 -992 Descending Los Angeles Center
Thu 03:33:18 AM 36.0739 -115.0092 267° West 170 196 3,800 -694 Descending Los Angeles Center
Thu 03:34:18 AM 36.0739 -115.0608 270° West 165 190 3,100 -744 Descending Los Angeles Center
Thu 03:35:19 AM 36.0736 -115.1106 270° West 156 180 2,300 -787 Descending Los Angeles Center
Thu 03:37:00 AM 36.0667 -115.1500 219° Southwest  Level FlightAware Approximate

Login

Don't have an account? Register now (free) for customized features, flight alerts, and more!